• Join FlightAware (Why Join?)
  • Login
  • US Flag 
05:10AM EST


 

Airport Tracker/Info


-or-


 

Live Flight TrackerFlight Track Log ✈ N169MA ✈ 21-Apr-2013 ✈ KTTA - KABE

Flight Track Log - Related Links

Times and Time Zones

All times are in EDT time to prevent confusion due to time zone crossing. See the N169MA flight status page for this flight to view local times or setup timezone preferences in your user account.

Time Position Orientation Groundspeed Altitude Reporting Facility
EDT Latitude Longitude Course Direction KTS MPH feet Rate Location/Type
02:21PM 35.8383 -79.0047 28° Northeast 113 130 6,800  Level Washington Center
02:22PM 35.8658 -78.9881 26° Northeast 123 142 7,100 60 Climbing Washington Center
02:23PM 35.9064 -78.9564 32° Northeast 146 168 7,000 -60 Descending Washington Center
02:24PM 35.9406 -78.9297 32° Northeast 151 174 7,000  Level Washington Center
02:25PM 35.9725 -78.9106 26° Northeast 150 173 7,000  Level Washington Center
02:26PM 35.9604 -78.8478 28° Northeast  Level Estimated
02:26PM 36.0128 -78.8839 28° Northeast 150 173 7,000  Level Washington Center
02:27PM 36.0553 -78.8575 27° Northeast 146 168 7,000  Level Washington Center
02:28PM 36.0936 -78.8256 34° Northeast 147 169 7,000  Level Washington Center
02:29PM 36.1214 -78.8061 29° Northeast 148 170 7,000  Level Washington Center
02:30PM 36.1597 -78.7769 32° Northeast 146 168 7,000  Level Washington Center
02:31PM 36.1958 -78.7528 28° Northeast 147 169 7,000  Level Washington Center
02:32PM 36.2172 -78.7303 40° Northeast 146 168 7,000  Level Washington Center
02:32PM 36.2361 -78.7208 22° Northeast 149 171 7,000  Level Washington Center
02:33PM 36.2447 -78.7133 35° Northeast 146 168 7,000  Level Washington Center
02:34PM 36.2850 -78.6867 28° Northeast 154 177 7,000  Level Washington Center
02:35PM 36.3169 -78.6647 29° Northeast 154 177 7,000  Level Washington Center
02:36PM 36.3572 -78.6381 28° Northeast 149 171 7,000  Level Washington Center
02:37PM 36.3911 -78.6161 28° Northeast 144 166 7,000  Level Washington Center
02:38PM 36.4214 -78.5811 43° Northeast 144 166 7,000  Level Washington Center
02:39PM 36.4453 -78.5356 57° Northeast 144 166 7,000  Level Washington Center
02:40PM 36.4672 -78.4950 56° Northeast 144 166 7,000  Level Washington Center
02:41PM 36.4892 -78.4519 58° Northeast 144 166 7,000  Level Washington Center
02:42PM 36.5153 -78.4064 54° Northeast 144 166 7,000  Level Washington Center
02:43PM 36.5369 -78.3658 56° Northeast 149 171 7,000  Level Washington Center
02:44PM 36.5653 -78.3228 51° Northeast 149 171 7,000  Level Washington Center
02:45PM 36.5892 -78.2797 55° Northeast 149 171 7,000  Level Washington Center
02:46PM 36.6150 -78.2444 48° Northeast 149 171 7,000  Level Washington Center
02:47PM 36.6411 -78.1986 55° Northeast 149 171 7,000  Level Washington Center
02:48PM 36.6669 -78.1581 52° Northeast 149 171 7,000  Level Washington Center
02:49PM 36.6931 -78.1097 56° Northeast 149 171 7,100 60 Climbing Washington Center
02:50PM 36.7169 -78.0639 57° Northeast 149 171 7,200  Climbing Washington Center
02:51PM 36.7428 -78.0231 52° Northeast 149 171 7,200  Level Washington Center
02:52PM 36.7708 -77.9800 51° Northeast 149 171 7,200 -60 Level Washington Center
02:53PM 36.7967 -77.9367 53° Northeast 149 171 7,100  Descending Washington Center
02:54PM 36.8203 -77.8958 54° Northeast 149 171 7,200  Climbing Washington Center
02:55PM 36.8544 -77.8606 40° Northeast 149 171 7,200 -60 Level Washington Center
02:56PM 36.8903 -77.8331 32° Northeast 149 171 7,100  Descending Washington Center
02:57PM 36.9244 -77.8028 35° Northeast 149 171 7,200 -60 Climbing Washington Center
02:58PM 36.9583 -77.7725 36° Northeast 149 171 7,000 -120 Descending Washington Center
02:59PM 36.9942 -77.7450 32° Northeast 149 171 7,000  Level Washington Center
03:00PM 37.0300 -77.7200 29° Northeast 149 171 7,000  Level Washington Center
03:01PM 37.0681 -77.6925 30° Northeast 149 171 7,000  Level Washington Center
03:02PM 37.1019 -77.6622 35° Northeast 149 171 7,000  Level Washington Center
03:03PM 37.1381 -77.6319 34° Northeast 149 171 7,000  Level Washington Center
03:04PM 37.1739 -77.6042 32° Northeast 149 171 7,000  Level Washington Center
03:05PM 37.2058 -77.5764 35° Northeast 149 171 7,000  Level Washington Center
03:07PM 37.2667 -77.5167 38° Northeast 154 177 7,100  Climbing Potomac TRACON
03:08PM 37.3000 -77.4833 38° Northeast 149 171 7,100  Level Potomac TRACON
03:09PM 37.3333 -77.4500 38° Northeast 147 169 7,200  Climbing Potomac TRACON
03:10PM 37.3833 -77.4333 15° North 152 175 7,100 -60 Descending Potomac TRACON
03:11PM 37.4167 -77.4000 38° Northeast 152 175 7,100  Level Potomac TRACON
03:12PM 37.4500 -77.3667 38° Northeast 142 163 7,200  Climbing Potomac TRACON
03:13PM 37.4833 -77.3333 38° Northeast 136 157 7,200 -60 Level Potomac TRACON
03:14PM 37.5000 -77.3167 38° Northeast 129 148 7,100 -60 Descending Potomac TRACON
03:15PM 37.5500 -77.2833 28° Northeast 146 168 7,100  Level Potomac TRACON
03:16PM 37.5833 -77.2500 38° Northeast 148 170 7,100  Level Potomac TRACON
03:17PM 37.6167 -77.2167 38° Northeast 154 177 7,200 -60 Climbing Potomac TRACON
03:18PM 37.6500 -77.1833 38° Northeast 158 182 7,000 -120 Descending Potomac TRACON
03:19PM 37.6833 -77.1500 38° Northeast 158 182 7,000  Level Potomac TRACON
03:20PM 37.7167 -77.1000 50° Northeast 162 186 7,000  Level Potomac TRACON
03:21PM 37.7556 -77.0600 39° Northeast 160 184 7,100  Climbing Washington Center
03:22PM 37.7892 -77.0267 38° Northeast 160 184 7,100  Level Washington Center
03:23PM 37.8208 -76.9903 42° Northeast 160 184 7,100  Level Washington Center
03:24PM 37.8569 -76.9567 36° Northeast 160 184 7,100  Level Washington Center
03:25PM 37.8886 -76.9206 42° Northeast 155 178 7,100  Level Washington Center
03:26PM 37.9222 -76.8894 36° Northeast 155 178 7,100  Level Washington Center
03:27PM 37.9539 -76.8558 40° Northeast 155 178 7,100  Level Washington Center
03:28PM 37.9856 -76.8169 44° Northeast 155 178 7,100  Level Washington Center
03:29PM 38.0108 -76.7750 53° Northeast 155 178 7,100  Level Washington Center
03:30PM 38.0383 -76.7361 48° Northeast 149 171 7,100  Level Washington Center
03:31PM 38.0681 -76.6942 48° Northeast 149 171 7,100  Level Washington Center
03:32PM 38.0975 -76.6550 46° Northeast 149 171 7,100  Level Washington Center
03:33PM 38.1272 -76.6158 46° Northeast 149 171 7,100  Level Washington Center
03:34PM 38.1567 -76.5742 48° Northeast 149 171 7,100  Level Washington Center
03:35PM 38.1861 -76.5347 46° Northeast 149 171 7,100 -60 Level Washington Center
03:36PM 38.2156 -76.4956 46° Northeast 149 171 7,000 -60 Descending Washington Center
03:37PM 38.2431 -76.4561 48° Northeast 149 171 7,000  Level Washington Center
03:38PM 38.2747 -76.4142 46° Northeast 149 171 7,000  Level Washington Center
03:39PM 38.3061 -76.3803 40° Northeast 149 171 7,000  Level Washington Center
03:40PM 38.3481 -76.3622 19° North 142 163 7,000  Level Washington Center
03:41PM 38.3856 -76.3386 26° Northeast 142 163 7,000  Level Washington Center
03:42PM 38.4233 -76.3153 26° Northeast 142 163 7,000  Level Washington Center
03:43PM 38.4631 -76.2917 25° Northeast 142 163 7,000  Level Washington Center
03:44PM 38.5008 -76.2708 23° Northeast 147 169 7,000  Level Washington Center
03:45PM 38.5406 -76.2500 22° Northeast 147 169 7,000  Level Washington Center
03:46PM 38.5803 -76.2292 22° Northeast 152 175 7,100  Climbing Washington Center
03:47PM 38.6178 -76.2056 26° Northeast 152 175 7,100  Level Washington Center
03:48PM 38.6597 -76.1872 19° North 152 175 7,100  Level Washington Center
03:49PM 38.6972 -76.1636 26° Northeast 152 175 7,100  Level Washington Center
03:51PM 38.7622 -76.1250 25° Northeast 152 175 7,100  Level FAA TRACON SMA TRACON (SMA)
03:51PM 38.7753 -76.1181 23° Northeast 155 178 7,100  Level FAA TRACON SMA TRACON (SMA)
03:51PM 38.7883 -76.1114 22° Northeast 156 180 7,100  Level FAA TRACON SMA TRACON (SMA)
03:52PM 38.8014 -76.1042 23° Northeast 156 180 7,100  Level FAA TRACON SMA TRACON (SMA)
03:52PM 38.8136 -76.0967 26° Northeast 154 177 7,100  Level FAA TRACON SMA TRACON (SMA)
03:52PM 38.8297 -76.0881 23° Northeast 154 177 7,100  Level FAA TRACON SMA TRACON (SMA)
03:53PM 38.8422 -76.0808 24° Northeast 154 177 7,100  Level FAA TRACON SMA TRACON (SMA)
03:53PM 38.8550 -76.0736 24° Northeast 155 178 7,100  Level FAA TRACON SMA TRACON (SMA)
03:53PM 38.8678 -76.0664 24° Northeast 155 178 7,100  Level FAA TRACON SMA TRACON (SMA)
03:54PM 38.8803 -76.0592 24° Northeast 154 177 7,100  Level FAA TRACON SMA TRACON (SMA)
03:54PM 38.8867 -76.0558 22° Northeast 154 177 7,100  Level FAA TRACON SMA TRACON (SMA)
03:54PM 38.8867 -76.0558 218° Southwest 154 177 7,100 -540 Level FAA TRACON SMA TRACON (SMA)
03:55PM 38.9508 -76.0203 23° Northeast 166 191 6,400 -600 Descending FAA TRACON SMA TRACON (SMA)
03:56PM 38.9644 -76.0128 23° Northeast 165 190 6,300 -480 Descending FAA TRACON SMA TRACON (SMA)
03:56PM 38.9778 -76.0056 23° Northeast 163 188 6,100 -480 Descending FAA TRACON SMA TRACON (SMA)
03:56PM 38.9914 -75.9981 23° Northeast 164 189 6,000 -480 Descending FAA TRACON SMA TRACON (SMA)
03:57PM 39.0050 -75.9911 22° Northeast 163 188 5,800 -720 Descending FAA TRACON SMA TRACON (SMA)
03:57PM 39.0219 -75.9822 22° Northeast 164 189 5,500 -780 Descending FAA TRACON SMA TRACON (SMA)
03:57PM 39.0358 -75.9753 21° North 164 189 5,300 -660 Descending FAA TRACON SMA TRACON (SMA)
03:58PM 39.0494 -75.9681 22° Northeast 164 189 5,100 -300 Descending FAA TRACON SMA TRACON (SMA)
03:58PM 39.0625 -75.9614 22° Northeast 163 188 5,100  Level FAA TRACON SMA TRACON (SMA)
03:58PM 39.0783 -75.9533 22° Northeast 160 184 5,100  Level FAA TRACON SMA TRACON (SMA)
03:59PM 39.0903 -75.9469 23° Northeast 154 177 5,100 -180 Level FAA TRACON SMA TRACON (SMA)
03:59PM 39.1022 -75.9408 22° Northeast 153 176 5,000  Descending FAA TRACON SMA TRACON (SMA)
03:59PM 39.1139 -75.9339 25° Northeast 152 175 5,100  Climbing FAA TRACON SMA TRACON (SMA)
04:00PM 39.1289 -75.9264 21° North 150 173 5,000  Descending FAA TRACON SMA TRACON (SMA)
04:00PM 39.1553 -75.9108 25° Northeast 149 171 5,100 60 Climbing FAA TRACON SMA TRACON (SMA)
04:01PM 39.1664 -75.9036 27° Northeast 149 171 5,100  Level FAA TRACON SMA TRACON (SMA)
04:01PM 39.1803 -75.8969 20° North 149 171 5,100  Level FAA TRACON SMA TRACON (SMA)
04:01PM 39.1922 -75.8872 32° Northeast 149 171 5,100  Level FAA TRACON SMA TRACON (SMA)
04:02PM 39.2036 -75.8797 27° Northeast 149 171 5,100  Level FAA TRACON SMA TRACON (SMA)
04:02PM 39.2139 -75.8722 29° Northeast 149 171 5,100  Level FAA TRACON SMA TRACON (SMA)
04:02PM 39.2292 -75.8639 23° Northeast 148 170 5,100  Level FAA TRACON SMA TRACON (SMA)
04:03PM 39.2403 -75.8567 27° Northeast 147 169 5,100  Level FAA TRACON SMA TRACON (SMA)
04:03PM 39.2522 -75.8500 23° Northeast 148 170 5,100  Level FAA TRACON SMA TRACON (SMA)
04:03PM 39.2667 -75.8414 25° Northeast 150 173 5,100  Level FAA TRACON SMA TRACON (SMA)
04:04PM 39.2783 -75.8342 26° Northeast 148 170 5,100  Level FAA TRACON SMA TRACON (SMA)
04:04PM 39.2892 -75.8256 32° Northeast 148 170 5,100  Level FAA TRACON SMA TRACON (SMA)
04:04PM 39.3031 -75.8161 28° Northeast 148 170 5,100  Level FAA TRACON SMA TRACON (SMA)
04:05PM 39.3161 -75.8131 10° North 163 188 5,100  Level FAA TRACON SMA TRACON (SMA)
04:05PM 39.3292 -75.8106 North 154 177 5,100  Level FAA TRACON SMA TRACON (SMA)
04:05PM 39.3414 -75.8075 11° North 151 174 5,100  Level FAA TRACON SMA TRACON (SMA)
04:06PM 39.3567 -75.8031 13° North 147 169 5,100  Level FAA TRACON SMA TRACON (SMA)
04:06PM 39.3692 -75.7994 13° North 149 171 5,100  Level FAA TRACON SMA TRACON (SMA)
04:06PM 39.3856 -75.7953 11° North 151 174 5,100  Level FAA TRACON SMA TRACON (SMA)
04:07PM 39.3975 -75.7914 14° North 149 171 5,100  Level FAA TRACON SMA TRACON (SMA)
04:07PM 39.4100 -75.7878 13° North 148 170 5,100  Level FAA TRACON SMA TRACON (SMA)
04:07PM 39.4225 -75.7847 11° North 148 170 5,100  Level FAA TRACON SMA TRACON (SMA)
04:08PM 39.4375 -75.7797 14° North 147 169 5,100  Level FAA TRACON SMA TRACON (SMA)
04:08PM 39.4506 -75.7764 11° North 149 171 5,100  Level FAA TRACON SMA TRACON (SMA)
04:08PM 39.4631 -75.7725 14° North 148 170 5,100  Level FAA TRACON SMA TRACON (SMA)
04:09PM 39.4783 -75.7678 13° North 148 170 5,100  Level FAA TRACON SMA TRACON (SMA)
04:09PM 39.4903 -75.7656 North 149 171 5,100  Level FAA TRACON SMA TRACON (SMA)
04:09PM 39.5036 -75.7622 11° North 149 171 5,100  Level FAA TRACON SMA TRACON (SMA)
04:10PM 39.5194 -75.7586 10° North 148 170 5,100  Level FAA TRACON SMA TRACON (SMA)
04:10PM 39.5322 -75.7561 North 148 170 5,100  Level FAA TRACON SMA TRACON (SMA)
04:10PM 39.5442 -75.7522 14° North 147 169 5,100  Level FAA TRACON SMA TRACON (SMA)
04:11PM 39.5589 -75.7478 13° North 145 167 5,100  Level FAA TRACON SMA TRACON (SMA)
04:11PM 39.5717 -75.7450 10° North 146 168 5,100  Level FAA TRACON SMA TRACON (SMA)
04:11PM 39.5869 -75.7408 12° North 146 168 5,100  Level FAA TRACON SMA TRACON (SMA)
04:12PM 39.5997 -75.7378 10° North 149 171 5,100  Level FAA TRACON SMA TRACON (SMA)
04:12PM 39.6122 -75.7344 12° North 148 170 5,100  Level FAA TRACON SMA TRACON (SMA)
04:12PM 39.6275 -75.7303 12° North 147 169 5,100  Level FAA TRACON SMA TRACON (SMA)
04:13PM 39.6386 -75.7281 North 148 170 5,100  Level FAA TRACON SMA TRACON (SMA)
04:13PM 39.6528 -75.7239 13° North 151 174 5,100  Level FAA TRACON SMA TRACON (SMA)
04:13PM 39.6692 -75.7206 North 157 181 5,100  Level FAA TRACON SMA TRACON (SMA)
04:14PM 39.6817 -75.7186 North 155 178 5,100  Level FAA TRACON SMA TRACON (SMA)
04:14PM 39.6961 -75.7144 13° North 153 176 5,100  Level FAA TRACON SMA TRACON (SMA)
04:14PM 39.7092 -75.7111 11° North 149 171 5,100  Level FAA TRACON SMA TRACON (SMA)
04:15PM 39.7233 -75.7056 17° North 148 170 5,100  Level FAA TRACON SMA TRACON (SMA)
04:15PM 39.7522 -75.6981 11° North 151 174 5,100  Level FAA TRACON SMA TRACON (SMA)
04:16PM 39.7639 -75.6958 North 154 177 5,100  Level FAA TRACON SMA TRACON (SMA)
04:16PM 39.7786 -75.6911 14° North 152 175 5,100  Level FAA TRACON SMA TRACON (SMA)
04:16PM 39.7939 -75.6872 11° North 151 174 5,100  Level FAA TRACON SMA TRACON (SMA)
04:17PM 39.8050 -75.6839 13° North 153 176 5,100  Level FAA TRACON SMA TRACON (SMA)
04:17PM 39.8197 -75.6811 North 152 175 5,100  Level FAA TRACON SMA TRACON (SMA)
04:17PM 39.8328 -75.6789 North 152 175 5,100  Level FAA TRACON SMA TRACON (SMA)
04:18PM 39.8472 -75.6756 10° North 149 171 5,100  Level FAA TRACON SMA TRACON (SMA)
04:18PM 39.8603 -75.6722 11° North 146 168 5,100  Level FAA TRACON SMA TRACON (SMA)
04:18PM 39.8761 -75.6689 North 147 169 5,100  Level FAA TRACON SMA TRACON (SMA)
04:19PM 39.8883 -75.6661 10° North 151 174 5,100  Level FAA TRACON SMA TRACON (SMA)
04:19PM 39.9025 -75.6628 10° North 155 178 5,100  Level FAA TRACON SMA TRACON (SMA)
04:19PM 39.9153 -75.6589 13° North 155 178 5,100  Level FAA TRACON SMA TRACON (SMA)
04:20PM 39.9303 -75.6547 12° North 154 177 5,100  Level FAA TRACON SMA TRACON (SMA)
04:20PM 39.9447 -75.6514 10° North 154 177 5,100  Level FAA TRACON SMA TRACON (SMA)
04:20PM 39.9597 -75.6478 10° North 153 176 5,100  Level FAA TRACON SMA TRACON (SMA)
04:21PM 39.9714 -75.6433 16° North 151 174 5,100  Level FAA TRACON SMA TRACON (SMA)
04:21PM 39.9856 -75.6392 13° North 149 171 5,100  Level FAA TRACON SMA TRACON (SMA)
04:21PM 40.0011 -75.6356 10° North 145 167 5,100  Level FAA TRACON SMA TRACON (SMA)
04:22PM 40.0119 -75.6325 12° North 148 170 5,100  Level FAA TRACON SMA TRACON (SMA)
04:22PM 40.0250 -75.6278 15° North 149 171 5,100  Level FAA TRACON SMA TRACON (SMA)
04:22PM 40.0389 -75.6236 13° North 152 175 5,100  Level FAA TRACON SMA TRACON (SMA)
04:23PM 40.0533 -75.6197 12° North 151 174 5,100  Level FAA TRACON SMA TRACON (SMA)
04:23PM 40.0678 -75.6147 15° North 154 177 5,100  Level FAA TRACON SMA TRACON (SMA)
04:23PM 40.0778 -75.6103 19° North 155 178 5,100 -300 Level FAA TRACON SMA TRACON (SMA)
04:24PM 40.0964 -75.6042 14° North 156 180 4,900 -600 Descending FAA TRACON SMA TRACON (SMA)
04:24PM 40.1094 -75.5975 21° North 158 182 4,700 -780 Descending FAA TRACON SMA TRACON (SMA)
04:24PM 40.1233 -75.5922 16° North 162 186 4,400 -600 Descending FAA TRACON SMA TRACON (SMA)
04:25PM 40.1403 -75.5928 359° North 174 200 4,300 -180 Descending FAA TRACON SMA TRACON (SMA)
04:25PM 40.1553 -75.5964 350° North 164 189 4,300 -180 Level FAA TRACON SMA TRACON (SMA)
04:25PM 40.1719 -75.6031 343° North 163 188 4,200 -180 Descending FAA TRACON SMA TRACON (SMA)
04:26PM 40.1847 -75.6064 349° North 163 188 4,200 -180 Level FAA TRACON SMA TRACON (SMA)
04:26PM 40.1989 -75.6108 347° North 162 186 4,100 -480 Descending FAA TRACON SMA TRACON (SMA)
04:26PM 40.2128 -75.6142 350° North 162 186 3,900 -600 Descending FAA TRACON SMA TRACON (SMA)
04:27PM 40.2303 -75.6150 358° North 168 193 3,700 -480 Descending FAA TRACON SMA TRACON (SMA)
04:27PM 40.2442 -75.6189 348° North 161 185 3,600  Descending FAA TRACON SMA TRACON (SMA)
04:27PM 40.2558 -75.6278 330° Northwest 153 176 3,700 -180 Climbing FAA TRACON SMA TRACON (SMA)
04:28PM 40.2703 -75.6381 332° Northwest 152 175 3,500 -300 Descending FAA TRACON SMA TRACON (SMA)
04:28PM 40.2808 -75.6453 332° Northwest 144 166 3,500  Level FAA TRACON SMA TRACON (SMA)
04:28PM 40.2919 -75.6528 333° Northwest 136 157 3,500  Level FAA TRACON SMA TRACON (SMA)
04:29PM 40.3033 -75.6586 339° North 127 146 3,500 120 Level FAA TRACON SMA TRACON (SMA)
04:29PM 40.3125 -75.6636 337° Northwest 120 138 3,600 120 Climbing FAA TRACON SMA TRACON (SMA)
04:29PM 40.3219 -75.6686 338° Northwest 121 139 3,600 -180 Level FAA TRACON SMA TRACON (SMA)
04:30PM 40.3344 -75.6736 343° North 119 137 3,500  Descending FAA TRACON SMA TRACON (SMA)
04:30PM 40.3444 -75.6769 346° North 119 137 3,600 120 Climbing FAA TRACON SMA TRACON (SMA)
04:30PM 40.3561 -75.6831 338° Northwest 121 139 3,600  Level FAA TRACON SMA TRACON (SMA)
04:31PM 40.3664 -75.6894 335° Northwest 127 146 3,600  Level FAA TRACON SMA TRACON (SMA)
04:31PM 40.3764 -75.6956 335° Northwest 127 146 3,600 120 Level FAA TRACON SMA TRACON (SMA)
04:31PM 40.3869 -75.7003 341° North 131 151 3,700 120 Climbing FAA TRACON SMA TRACON (SMA)
04:32PM 40.4011 -75.7064 342° North 133 153 3,700 -180 Level FAA TRACON SMA TRACON (SMA)
04:32PM 40.4092 -75.7097 343° North 132 152 3,600 -120 Descending FAA TRACON SMA TRACON (SMA)
04:33PM 40.4092 -75.7097 207° Southwest 132 152 3,600  Level FAA TRACON SMA TRACON (SMA)
04:35PM 40.4482 -75.6128 62° Northeast  Level FlightAware Approximate
04:42PM 40.6500 -75.4333 29° Northeast  Level FlightAware Approximate
04:43PM 40.6524 -75.4404 29° Northeast  Level Estimated
04:44PM 40.6500 -75.4333 29° Northeast  Level FlightAware Approximate
04:45PM 40.6524 -75.4404 29° Northeast  Level Estimated
04:46PM 40.6500 -75.4333 29° Northeast  Level FlightAware Approximate
04:47PM 40.6524 -75.4404 29° Northeast  Level Estimated